KTPF

Details ICAO KTPF
Name Peter O Knight
Region United States
Timezone America/New_York (UTC-5.0)
Plans Departing 13
Arriving 8
Stats Elevation 8 ft / 2 m (AMSL)
Location 27.915655° -82.449097°
Runways 2
Magnetic Variation 5.602° W
Sunrise 2017-12-17 12:16:07 UTC / 2017-12-17 07:16:07 Local
Sunset 2017-12-17 22:38:40 UTC / 2017-12-17 17:38:40 Local
Advertisement - Login to hide

Runways

ID Width Length Bearing (true) Bearing (mag) Surface Threshold Offset Overrun Length
03 100 ft / 30 m 3,411 ft / 1,040 m 36.82° 42.42° Asphalt 0 ft / 0 m 0 ft / 0 m
17 75 ft / 23 m 2,697 ft / 822 m 173.06° 178.66° Asphalt 200 ft / 61 m 0 ft / 0 m
21 100 ft / 30 m 3,411 ft / 1,040 m 216.82° 222.42° Asphalt 0 ft / 0 m 0 ft / 0 m
35 75 ft / 23 m 2,697 ft / 822 m 353.06° 358.66° Asphalt 200 ft / 61 m 0 ft / 0 m

Map

Weather


0- 5 10 15 20 25 30 35+ Temperature / ° C

Clouds and Precipitation
Forecast for 2017-12-18 00:00 UTC. Updated 32 minutes ago

Ground ~20,000 ft ~40,000 ft Winds

METAR

KTPF 171935Z AUTO 22004KT 10SM 25/16 A3019 RMK AO2

TAF

Not found

Frequencies

Recorded 118.92 MHz AWOS 3
Clearance 119.80 MHz CLNC DEL
Unicom 122.80 MHz CTAF/UNICOM
Approach 119.90 MHz TAMPA APP/DEP
Warning: Do not use this data for real-world aviation or navigation. No guarantee of current accuracy is given.